EZY58HQ LEAL-EGBB
Flight info
| Callsign | EZY58HQ |
|---|---|
| Flight time | 2h 16m |
| Altitude | 36000 |
| Route | MITOS N608 COMPI Y90 USKAR N863 GIROM DCT AGN DCT SECHE DCT UVELI DCT CNA DCT TUPAR UN861 DIKRO UM184 HEMEL |
| Aircraft | A320/M-SDE2E3FGHIJ1RWXYZ/LB1 |
Departure
| Time | 2026-04-29 09:43 |
|---|---|
| Airport | Alicante-Elche Miguel Hernández Airport (LEAL) |
Arrival
| Time | 2026-04-29 11:59 |
|---|---|
| Airport | Birmingham Airport (EGBB) |
| Time | Latitude | Longitude | Altitude | Speed | Heading |
|---|---|---|---|---|---|
| 2026-04-29 09:15 | 38.28518 | -0.55176 | 92 ft | 0 kts | 9° |
| 2026-04-29 09:35 | 38.28516 | -0.55176 | 92 ft | 2 kts | 9° |
| 2026-04-29 09:35 | 38.28491 | -0.55182 | 92 ft | 4 kts | 15° |
| 2026-04-29 09:35 | 38.28466 | -0.55194 | 90 ft | 4 kts | 29° |
| 2026-04-29 09:36 | 38.28447 | -0.55213 | 92 ft | 4 kts | 69° |
| 2026-04-29 09:36 | 38.28445 | -0.55230 | 92 ft | 1 kts | 100° |
| 2026-04-29 09:36 | 38.28445 | -0.55233 | 92 ft | 0 kts | 100° |
| 2026-04-29 09:39 | 38.28442 | -0.55215 | 94 ft | 5 kts | 100° |
| 2026-04-29 09:39 | 38.28426 | -0.55166 | 92 ft | 7 kts | 135° |
| 2026-04-29 09:39 | 38.28379 | -0.55176 | 91 ft | 9 kts | 226° |
| 2026-04-29 09:39 | 38.28315 | -0.55190 | 85 ft | 13 kts | 136° |
| 2026-04-29 09:40 | 38.28291 | -0.55073 | 76 ft | 15 kts | 100° |
| 2026-04-29 09:40 | 38.28271 | -0.54932 | 70 ft | 17 kts | 100° |
| 2026-04-29 09:40 | 38.28249 | -0.54777 | 62 ft | 18 kts | 101° |
| 2026-04-29 09:40 | 38.28226 | -0.54609 | 58 ft | 21 kts | 100° |
| 2026-04-29 09:41 | 38.28199 | -0.54415 | 54 ft | 23 kts | 99° |
| 2026-04-29 09:41 | 38.28176 | -0.54249 | 50 ft | 16 kts | 100° |
| 2026-04-29 09:41 | 38.28091 | -0.54191 | 50 ft | 15 kts | 191° |
| 2026-04-29 09:41 | 38.28004 | -0.54236 | 54 ft | 13 kts | 242° |
| 2026-04-29 09:42 | 38.28015 | -0.54375 | 55 ft | 29 kts | 280° |
| 2026-04-29 09:42 | 38.28095 | -0.54944 | 73 ft | 98 kts | 280° |
| 2026-04-29 09:42 | 38.28247 | -0.56044 | 113 ft | 151 kts | 279° |
| 2026-04-29 09:42 | 38.28444 | -0.57387 | 586 ft | 156 kts | 278° |
| 2026-04-29 09:43 | 38.28668 | -0.58731 | 1173 ft | 158 kts | 281° |
| 2026-04-29 09:43 | 38.28914 | -0.60179 | 1608 ft | 176 kts | 282° |
| 2026-04-29 09:43 | 38.29187 | -0.61804 | 1964 ft | 199 kts | 282° |
| 2026-04-29 09:43 | 38.29487 | -0.63601 | 2314 ft | 219 kts | 282° |
| 2026-04-29 09:44 | 38.29812 | -0.65563 | 2794 ft | 231 kts | 283° |
| 2026-04-29 09:44 | 38.30144 | -0.67604 | 3547 ft | 234 kts | 283° |
| 2026-04-29 09:44 | 38.30470 | -0.69620 | 4245 ft | 238 kts | 283° |
| 2026-04-29 09:44 | 38.30804 | -0.71705 | 4941 ft | 242 kts | 282° |
| 2026-04-29 09:45 | 38.31141 | -0.73815 | 5667 ft | 245 kts | 281° |
| 2026-04-29 09:45 | 38.31479 | -0.75945 | 6391 ft | 247 kts | 280° |
| 2026-04-29 09:45 | 38.31646 | -0.78115 | 7124 ft | 246 kts | 265° |
| 2026-04-29 09:45 | 38.31316 | -0.80243 | 7871 ft | 245 kts | 248° |
| 2026-04-29 09:46 | 38.30504 | -0.82153 | 8589 ft | 247 kts | 231° |
| 2026-04-29 09:46 | 38.29282 | -0.83673 | 9325 ft | 248 kts | 215° |
| 2026-04-29 09:46 | 38.27747 | -0.84676 | 10010 ft | 250 kts | 198° |
| 2026-04-29 09:46 | 38.26025 | -0.85050 | 10657 ft | 253 kts | 181° |
| 2026-04-29 09:47 | 38.24273 | -0.84750 | 11320 ft | 257 kts | 164° |
| 2026-04-29 09:47 | 38.22649 | -0.83772 | 11972 ft | 262 kts | 146° |
| 2026-04-29 09:47 | 38.21323 | -0.82166 | 12620 ft | 268 kts | 128° |
| 2026-04-29 09:47 | 38.20456 | -0.80047 | 13248 ft | 274 kts | 109° |
| 2026-04-29 09:48 | 38.20169 | -0.77630 | 13856 ft | 281 kts | 90° |
| 2026-04-29 09:48 | 38.20536 | -0.75174 | 14388 ft | 287 kts | 70° |
| 2026-04-29 09:48 | 38.21331 | -0.72834 | 14956 ft | 290 kts | 68° |
| 2026-04-29 09:48 | 38.22132 | -0.70475 | 15506 ft | 292 kts | 68° |
| 2026-04-29 09:49 | 38.22873 | -0.68049 | 15981 ft | 299 kts | 77° |
| 2026-04-29 09:49 | 38.23060 | -0.65368 | 16105 ft | 314 kts | 94° |
| 2026-04-29 09:49 | 38.22980 | -0.62505 | 16235 ft | 333 kts | 94° |
| 2026-04-29 09:49 | 38.22897 | -0.59490 | 16365 ft | 351 kts | 94° |
| 2026-04-29 09:50 | 38.22817 | -0.56308 | 16496 ft | 368 kts | 93° |
| 2026-04-29 09:50 | 38.22737 | -0.53001 | 16808 ft | 378 kts | 95° |
| 2026-04-29 09:50 | 38.22241 | -0.49714 | 17290 ft | 380 kts | 112° |
| 2026-04-29 09:50 | 38.20996 | -0.46772 | 17806 ft | 380 kts | 128° |
| 2026-04-29 09:51 | 38.19540 | -0.43957 | 18308 ft | 386 kts | 116° |
| 2026-04-29 09:51 | 38.18925 | -0.40621 | 18751 ft | 394 kts | 92° |
| 2026-04-29 09:51 | 38.19433 | -0.37192 | 19201 ft | 401 kts | 67° |
| 2026-04-29 09:51 | 38.20966 | -0.34305 | 19668 ft | 404 kts | 43° |
| 2026-04-29 09:52 | 38.23307 | -0.32349 | 20150 ft | 406 kts | 23° |
| 2026-04-29 09:52 | 38.25913 | -0.30923 | 20610 ft | 409 kts | 22° |
| 2026-04-29 09:52 | 38.28534 | -0.29497 | 21089 ft | 412 kts | 22° |
| 2026-04-29 09:52 | 38.31183 | -0.28059 | 21565 ft | 415 kts | 21° |
| 2026-04-29 09:53 | 38.33875 | -0.26708 | 22030 ft | 418 kts | 21° |
| 2026-04-29 09:53 | 38.36506 | -0.25095 | 22480 ft | 422 kts | 34° |
| 2026-04-29 09:53 | 38.38642 | -0.22542 | 22896 ft | 424 kts | 54° |
| 2026-04-29 09:53 | 38.40137 | -0.19301 | 23327 ft | 425 kts | 68° |
| 2026-04-29 09:54 | 38.41166 | -0.15768 | 23713 ft | 427 kts | 74° |
| 2026-04-29 09:54 | 38.41996 | -0.12125 | 24076 ft | 429 kts | 75° |
| 2026-04-29 09:54 | 38.43064 | -0.08568 | 24428 ft | 433 kts | 63° |
| 2026-04-29 09:54 | 38.44871 | -0.05491 | 24777 ft | 436 kts | 43° |
| 2026-04-29 09:55 | 38.47355 | -0.03280 | 25103 ft | 438 kts | 25° |
| 2026-04-29 09:55 | 38.50223 | -0.01947 | 25433 ft | 439 kts | 12° |
| 2026-04-29 09:55 | 38.53246 | -0.01397 | 25757 ft | 440 kts | 0° |
| 2026-04-29 09:55 | 38.56302 | -0.01357 | 26084 ft | 441 kts | 359° |
| 2026-04-29 09:56 | 38.59383 | -0.01321 | 26420 ft | 443 kts | 359° |
| 2026-04-29 09:56 | 38.62471 | -0.01281 | 26730 ft | 445 kts | 359° |
| 2026-04-29 09:56 | 38.65578 | -0.01246 | 27071 ft | 447 kts | 359° |
| 2026-04-29 09:56 | 38.68699 | -0.01215 | 27384 ft | 449 kts | 359° |
| 2026-04-29 09:57 | 38.71828 | -0.01187 | 27688 ft | 451 kts | 359° |
| 2026-04-29 09:57 | 38.74973 | -0.01162 | 27981 ft | 453 kts | 359° |
| 2026-04-29 09:57 | 38.78130 | -0.01146 | 28281 ft | 454 kts | 359° |
| 2026-04-29 09:57 | 38.81294 | -0.01132 | 28554 ft | 456 kts | 359° |
| 2026-04-29 09:58 | 38.84478 | -0.01114 | 28838 ft | 458 kts | 359° |
| 2026-04-29 09:58 | 38.87672 | -0.01094 | 29115 ft | 460 kts | 359° |
| 2026-04-29 09:58 | 38.90874 | -0.01073 | 29395 ft | 461 kts | 359° |
| 2026-04-29 09:58 | 38.94053 | -0.01051 | 29664 ft | 463 kts | 359° |
| 2026-04-29 09:59 | 38.97320 | -0.01031 | 29918 ft | 464 kts | 359° |
| 2026-04-29 09:59 | 39.00556 | -0.01012 | 30141 ft | 466 kts | 359° |
| 2026-04-29 09:59 | 39.03801 | -0.00992 | 30352 ft | 467 kts | 359° |
| 2026-04-29 09:59 | 39.07056 | -0.00969 | 30555 ft | 468 kts | 359° |
| 2026-04-29 10:00 | 39.10269 | -0.00945 | 30847 ft | 467 kts | 359° |
| 2026-04-29 10:00 | 39.13517 | -0.00920 | 31149 ft | 466 kts | 359° |
| 2026-04-29 10:00 | 39.16760 | -0.00896 | 31431 ft | 465 kts | 359° |
| 2026-04-29 10:00 | 39.19993 | -0.00875 | 31722 ft | 464 kts | 359° |
| 2026-04-29 10:01 | 39.23219 | -0.00857 | 32010 ft | 463 kts | 359° |
| 2026-04-29 10:01 | 39.26443 | -0.00839 | 32301 ft | 462 kts | 359° |
| 2026-04-29 10:01 | 39.29651 | -0.00819 | 32582 ft | 462 kts | 359° |
| 2026-04-29 10:01 | 39.32865 | -0.00783 | 32860 ft | 461 kts | 2° |
| 2026-04-29 10:02 | 39.36044 | -0.00332 | 33134 ft | 461 kts | 11° |
| 2026-04-29 10:02 | 39.39156 | 0.00693 | 33382 ft | 461 kts | 15° |
| 2026-04-29 10:02 | 39.42239 | 0.01840 | 33643 ft | 461 kts | 15° |
| 2026-04-29 10:02 | 39.45313 | 0.02981 | 33909 ft | 460 kts | 15° |
| 2026-04-29 10:03 | 39.48393 | 0.04121 | 34145 ft | 460 kts | 15° |
| 2026-04-29 10:03 | 39.51461 | 0.05259 | 34378 ft | 459 kts | 15° |
| 2026-04-29 10:03 | 39.54536 | 0.06399 | 34595 ft | 459 kts | 15° |
| 2026-04-29 10:03 | 39.57606 | 0.07534 | 34793 ft | 459 kts | 15° |
| 2026-04-29 10:04 | 39.60683 | 0.08672 | 34968 ft | 460 kts | 15° |
| 2026-04-29 10:04 | 39.63759 | 0.09812 | 35145 ft | 460 kts | 15° |
| 2026-04-29 10:04 | 39.66830 | 0.10951 | 35318 ft | 460 kts | 15° |
| 2026-04-29 10:04 | 39.69908 | 0.12096 | 35496 ft | 460 kts | 15° |
| 2026-04-29 10:05 | 39.72981 | 0.13243 | 35662 ft | 459 kts | 15° |
| 2026-04-29 10:05 | 39.76053 | 0.14391 | 35841 ft | 459 kts | 15° |
| 2026-04-29 10:05 | 39.79082 | 0.15523 | 35946 ft | 459 kts | 15° |
| 2026-04-29 10:05 | 39.82142 | 0.16666 | 35965 ft | 458 kts | 15° |
| 2026-04-29 10:06 | 39.88257 | 0.18948 | 35966 ft | 457 kts | 15° |
| 2026-04-29 10:06 | 39.94362 | 0.21228 | 35968 ft | 457 kts | 15° |
| 2026-04-29 10:07 | 40.00470 | 0.23526 | 35964 ft | 457 kts | 15° |
| 2026-04-29 10:07 | 40.06577 | 0.25813 | 35975 ft | 457 kts | 16° |
| 2026-04-29 10:08 | 40.12687 | 0.28104 | 35996 ft | 457 kts | 16° |
| 2026-04-29 10:08 | 40.18804 | 0.30406 | 35996 ft | 457 kts | 16° |
| 2026-04-29 10:09 | 40.24914 | 0.32710 | 35994 ft | 457 kts | 16° |
| 2026-04-29 10:09 | 40.31025 | 0.35017 | 35985 ft | 457 kts | 16° |
| 2026-04-29 10:10 | 40.37131 | 0.37333 | 35979 ft | 457 kts | 16° |
| 2026-04-29 10:10 | 40.43238 | 0.39672 | 35987 ft | 457 kts | 17° |
| 2026-04-29 10:11 | 40.49329 | 0.41994 | 35999 ft | 455 kts | 17° |
| 2026-04-29 10:11 | 40.55411 | 0.44304 | 35998 ft | 455 kts | 17° |
| 2026-04-29 10:12 | 40.61483 | 0.46619 | 35998 ft | 454 kts | 17° |
| 2026-04-29 10:12 | 40.67551 | 0.48950 | 35992 ft | 454 kts | 17° |
| 2026-04-29 10:13 | 40.73620 | 0.51289 | 35989 ft | 454 kts | 17° |
| 2026-04-29 10:13 | 40.79682 | 0.53616 | 35987 ft | 454 kts | 17° |
| 2026-04-29 10:14 | 40.85752 | 0.55949 | 35988 ft | 454 kts | 17° |
| 2026-04-29 10:14 | 40.91806 | 0.58292 | 35990 ft | 454 kts | 17° |
| 2026-04-29 10:15 | 40.96849 | 0.60244 | 35979 ft | 454 kts | 17° |
| 2026-04-29 10:15 | 41.03897 | 0.62974 | 35976 ft | 454 kts | 17° |
| 2026-04-29 10:16 | 41.08980 | 0.64940 | 35967 ft | 455 kts | 17° |
| 2026-04-29 10:16 | 41.16041 | 0.67688 | 35970 ft | 455 kts | 17° |
| 2026-04-29 10:17 | 41.21138 | 0.69680 | 35973 ft | 456 kts | 17° |
| 2026-04-29 10:17 | 41.27225 | 0.72054 | 35964 ft | 456 kts | 17° |
| 2026-04-29 10:18 | 41.33311 | 0.74436 | 35968 ft | 456 kts | 17° |
| 2026-04-29 10:18 | 41.39405 | 0.76823 | 35974 ft | 456 kts | 16° |
| 2026-04-29 10:19 | 41.45444 | 0.79190 | 35988 ft | 455 kts | 16° |
| 2026-04-29 10:19 | 41.51502 | 0.81574 | 35990 ft | 454 kts | 16° |
| 2026-04-29 10:20 | 41.57554 | 0.83958 | 35987 ft | 453 kts | 16° |
| 2026-04-29 10:20 | 41.63604 | 0.86347 | 35984 ft | 453 kts | 16° |
| 2026-04-29 10:21 | 41.69648 | 0.88737 | 35980 ft | 453 kts | 16° |
| 2026-04-29 10:21 | 41.75684 | 0.91131 | 35976 ft | 453 kts | 16° |
| 2026-04-29 10:22 | 41.81728 | 0.93528 | 35971 ft | 453 kts | 16° |
| 2026-04-29 10:22 | 41.87777 | 0.95934 | 35942 ft | 454 kts | 16° |
| 2026-04-29 10:23 | 41.93824 | 0.98348 | 35931 ft | 454 kts | 16° |
| 2026-04-29 10:23 | 41.99880 | 1.00764 | 35933 ft | 454 kts | 16° |
| 2026-04-29 10:24 | 42.05953 | 1.03207 | 35925 ft | 455 kts | 16° |
| 2026-04-29 10:24 | 42.12039 | 1.05584 | 35937 ft | 456 kts | 11° |
| 2026-04-29 10:25 | 42.18315 | 1.06182 | 35947 ft | 453 kts | 353° |
| 2026-04-29 10:25 | 42.24598 | 1.05463 | 35973 ft | 453 kts | 353° |
| 2026-04-29 10:26 | 42.30852 | 1.04790 | 35973 ft | 454 kts | 354° |
| 2026-04-29 10:26 | 42.37149 | 1.04129 | 35970 ft | 455 kts | 354° |
| 2026-04-29 10:27 | 42.46619 | 1.03117 | 35969 ft | 456 kts | 354° |
| 2026-04-29 10:28 | 42.52947 | 1.02428 | 35953 ft | 456 kts | 353° |
| 2026-04-29 10:28 | 42.59284 | 1.01734 | 35952 ft | 457 kts | 353° |
| 2026-04-29 10:29 | 42.65613 | 1.01029 | 35961 ft | 457 kts | 353° |
| 2026-04-29 10:29 | 42.71945 | 1.00321 | 35948 ft | 455 kts | 354° |
| 2026-04-29 10:30 | 42.78256 | 0.99630 | 35937 ft | 455 kts | 354° |
| 2026-04-29 10:30 | 42.84559 | 0.98946 | 35933 ft | 455 kts | 354° |
| 2026-04-29 10:31 | 42.90866 | 0.98255 | 35910 ft | 454 kts | 354° |
| 2026-04-29 10:31 | 42.97165 | 0.97556 | 35912 ft | 454 kts | 354° |
| 2026-04-29 10:32 | 43.03468 | 0.96862 | 35893 ft | 455 kts | 354° |
| 2026-04-29 10:32 | 43.09777 | 0.96165 | 35885 ft | 456 kts | 354° |
| 2026-04-29 10:33 | 43.16115 | 0.95460 | 35882 ft | 457 kts | 354° |
| 2026-04-29 10:33 | 43.22453 | 0.94746 | 35877 ft | 457 kts | 354° |
| 2026-04-29 10:34 | 43.28807 | 0.94039 | 35888 ft | 458 kts | 354° |
| 2026-04-29 10:34 | 43.35170 | 0.93338 | 35886 ft | 459 kts | 354° |
| 2026-04-29 10:35 | 43.41536 | 0.92639 | 35884 ft | 459 kts | 354° |
| 2026-04-29 10:35 | 43.47895 | 0.91922 | 35891 ft | 459 kts | 353° |
| 2026-04-29 10:36 | 43.54269 | 0.91194 | 35891 ft | 459 kts | 353° |
| 2026-04-29 10:36 | 43.60643 | 0.90470 | 35896 ft | 459 kts | 353° |
| 2026-04-29 10:37 | 43.67015 | 0.89749 | 35898 ft | 459 kts | 353° |
| 2026-04-29 10:37 | 43.73384 | 0.89036 | 35901 ft | 459 kts | 353° |
| 2026-04-29 10:38 | 43.79756 | 0.88317 | 35901 ft | 459 kts | 353° |
| 2026-04-29 10:38 | 43.86123 | 0.87556 | 35903 ft | 458 kts | 349° |
| 2026-04-29 10:39 | 43.92187 | 0.85133 | 35901 ft | 451 kts | 332° |
| 2026-04-29 10:39 | 43.97868 | 0.81434 | 35903 ft | 451 kts | 332° |
| 2026-04-29 10:40 | 44.03533 | 0.77782 | 35912 ft | 452 kts | 332° |
| 2026-04-29 10:40 | 44.09233 | 0.74106 | 35921 ft | 452 kts | 332° |
| 2026-04-29 10:41 | 44.14949 | 0.70394 | 35913 ft | 453 kts | 332° |
| 2026-04-29 10:41 | 44.20669 | 0.66682 | 35906 ft | 454 kts | 332° |
| 2026-04-29 10:42 | 44.26393 | 0.62964 | 35905 ft | 454 kts | 332° |
| 2026-04-29 10:42 | 44.32115 | 0.59231 | 35909 ft | 454 kts | 331° |
| 2026-04-29 10:43 | 44.37831 | 0.55479 | 35911 ft | 454 kts | 331° |
| 2026-04-29 10:43 | 44.43562 | 0.51718 | 35923 ft | 455 kts | 331° |
| 2026-04-29 10:44 | 44.49286 | 0.47950 | 35924 ft | 455 kts | 331° |
| 2026-04-29 10:44 | 44.54998 | 0.44157 | 35923 ft | 454 kts | 331° |
| 2026-04-29 10:45 | 44.60713 | 0.40350 | 35922 ft | 454 kts | 331° |
| 2026-04-29 10:45 | 44.66421 | 0.36545 | 35936 ft | 454 kts | 330° |
| 2026-04-29 10:46 | 44.72134 | 0.32727 | 35926 ft | 455 kts | 330° |
| 2026-04-29 10:46 | 44.77856 | 0.28904 | 35919 ft | 455 kts | 330° |
| 2026-04-29 10:47 | 44.83568 | 0.25066 | 35915 ft | 455 kts | 330° |
| 2026-04-29 10:47 | 44.89283 | 0.21218 | 35915 ft | 455 kts | 330° |
| 2026-04-29 10:48 | 44.95000 | 0.17363 | 35916 ft | 455 kts | 330° |
| 2026-04-29 10:48 | 45.00711 | 0.13508 | 35924 ft | 455 kts | 330° |
| 2026-04-29 10:49 | 45.06427 | 0.09644 | 35918 ft | 456 kts | 330° |
| 2026-04-29 10:49 | 45.12145 | 0.05769 | 35916 ft | 456 kts | 330° |
| 2026-04-29 10:50 | 45.17825 | 0.01902 | 35923 ft | 456 kts | 330° |
| 2026-04-29 10:50 | 45.23583 | -0.02024 | 35940 ft | 456 kts | 330° |
| 2026-04-29 10:51 | 45.29279 | -0.05911 | 35923 ft | 458 kts | 330° |
| 2026-04-29 10:51 | 45.35017 | -0.09841 | 35925 ft | 458 kts | 330° |
| 2026-04-29 10:52 | 45.40762 | -0.13777 | 35931 ft | 458 kts | 330° |
| 2026-04-29 10:52 | 45.46543 | -0.17746 | 35935 ft | 458 kts | 329° |
| 2026-04-29 10:53 | 45.52244 | -0.21674 | 35935 ft | 459 kts | 329° |
| 2026-04-29 10:53 | 45.57995 | -0.25645 | 35956 ft | 459 kts | 329° |
| 2026-04-29 10:54 | 45.63740 | -0.29626 | 35954 ft | 459 kts | 329° |
| 2026-04-29 10:54 | 45.69728 | -0.32882 | 35949 ft | 463 kts | 338° |
| 2026-04-29 10:55 | 45.75873 | -0.35640 | 35930 ft | 463 kts | 338° |
| 2026-04-29 10:55 | 45.82024 | -0.38407 | 35935 ft | 463 kts | 338° |
| 2026-04-29 10:56 | 45.88169 | -0.41188 | 35939 ft | 463 kts | 338° |
| 2026-04-29 10:56 | 45.94315 | -0.43990 | 35938 ft | 463 kts | 338° |
| 2026-04-29 10:57 | 46.00455 | -0.46779 | 35947 ft | 463 kts | 338° |
| 2026-04-29 10:57 | 46.06597 | -0.49572 | 35949 ft | 463 kts | 338° |
| 2026-04-29 10:58 | 46.12736 | -0.52382 | 35957 ft | 463 kts | 338° |
| 2026-04-29 10:58 | 46.18863 | -0.55198 | 35967 ft | 462 kts | 338° |
| 2026-04-29 10:59 | 46.24993 | -0.58011 | 35963 ft | 461 kts | 338° |
| 2026-04-29 10:59 | 46.31102 | -0.60819 | 35962 ft | 461 kts | 338° |
| 2026-04-29 11:00 | 46.37219 | -0.63637 | 35966 ft | 461 kts | 338° |
| 2026-04-29 11:00 | 46.43378 | -0.66264 | 35971 ft | 464 kts | 346° |
| 2026-04-29 11:01 | 46.49809 | -0.67430 | 35973 ft | 466 kts | 350° |
| 2026-04-29 11:01 | 46.56255 | -0.68511 | 35971 ft | 466 kts | 349° |
| 2026-04-29 11:02 | 46.62702 | -0.69607 | 35982 ft | 466 kts | 349° |
| 2026-04-29 11:02 | 46.69133 | -0.70688 | 35986 ft | 465 kts | 349° |
| 2026-04-29 11:03 | 46.74473 | -0.71590 | 35986 ft | 465 kts | 349° |
| 2026-04-29 11:03 | 46.80897 | -0.72677 | 35975 ft | 465 kts | 350° |
| 2026-04-29 11:04 | 46.87320 | -0.73756 | 35976 ft | 464 kts | 349° |
| 2026-04-29 11:04 | 46.93742 | -0.74848 | 35983 ft | 464 kts | 349° |
| 2026-04-29 11:05 | 47.00158 | -0.75942 | 35980 ft | 464 kts | 350° |
| 2026-04-29 11:05 | 47.06571 | -0.77036 | 35984 ft | 464 kts | 350° |
| 2026-04-29 11:06 | 47.12977 | -0.78138 | 35986 ft | 463 kts | 350° |
| 2026-04-29 11:06 | 47.19371 | -0.79238 | 35989 ft | 463 kts | 350° |
| 2026-04-29 11:07 | 47.25764 | -0.80341 | 35996 ft | 462 kts | 350° |
| 2026-04-29 11:07 | 47.32147 | -0.81446 | 35993 ft | 462 kts | 350° |
| 2026-04-29 11:08 | 47.38528 | -0.82559 | 35998 ft | 461 kts | 350° |
| 2026-04-29 11:08 | 47.44862 | -0.83664 | 36018 ft | 461 kts | 350° |
| 2026-04-29 11:09 | 47.51230 | -0.84764 | 36007 ft | 460 kts | 350° |
| 2026-04-29 11:09 | 47.57597 | -0.85776 | 36003 ft | 461 kts | 352° |
| 2026-04-29 11:10 | 47.63995 | -0.86522 | 36001 ft | 461 kts | 353° |
| 2026-04-29 11:10 | 47.70384 | -0.87217 | 35998 ft | 461 kts | 352° |
| 2026-04-29 11:11 | 47.76777 | -0.87970 | 35993 ft | 460 kts | 352° |
| 2026-04-29 11:11 | 47.83157 | -0.88765 | 35999 ft | 460 kts | 352° |
| 2026-04-29 11:12 | 47.89541 | -0.89576 | 35995 ft | 461 kts | 352° |
| 2026-04-29 11:12 | 47.95934 | -0.90374 | 35995 ft | 461 kts | 352° |
| 2026-04-29 11:13 | 48.02324 | -0.91163 | 35993 ft | 461 kts | 353° |
| 2026-04-29 11:13 | 48.08674 | -0.91939 | 35997 ft | 461 kts | 353° |
| 2026-04-29 11:14 | 48.15058 | -0.92720 | 35999 ft | 461 kts | 353° |
| 2026-04-29 11:14 | 48.21491 | -0.93526 | 36002 ft | 460 kts | 353° |
| 2026-04-29 11:15 | 48.27831 | -0.94327 | 36020 ft | 460 kts | 353° |
| 2026-04-29 11:15 | 48.34211 | -0.95131 | 36023 ft | 460 kts | 353° |
| 2026-04-29 11:16 | 48.40587 | -0.95930 | 36026 ft | 460 kts | 353° |
| 2026-04-29 11:16 | 48.46962 | -0.96725 | 36029 ft | 459 kts | 353° |
| 2026-04-29 11:17 | 48.53328 | -0.97525 | 36036 ft | 459 kts | 353° |
| 2026-04-29 11:17 | 48.59695 | -0.98329 | 36041 ft | 459 kts | 353° |
| 2026-04-29 11:18 | 48.66023 | -0.99126 | 36052 ft | 459 kts | 353° |
| 2026-04-29 11:18 | 48.72433 | -0.99941 | 36049 ft | 459 kts | 353° |
| 2026-04-29 11:19 | 48.78754 | -1.00746 | 36058 ft | 459 kts | 353° |
| 2026-04-29 11:19 | 48.85120 | -1.01563 | 36062 ft | 459 kts | 353° |
| 2026-04-29 11:20 | 48.91492 | -1.02384 | 36071 ft | 459 kts | 353° |
| 2026-04-29 11:20 | 48.97856 | -1.03198 | 36072 ft | 459 kts | 353° |
| 2026-04-29 11:21 | 49.04228 | -1.04011 | 36070 ft | 459 kts | 353° |
| 2026-04-29 11:21 | 49.10600 | -1.04828 | 36078 ft | 460 kts | 353° |
| 2026-04-29 11:22 | 49.16978 | -1.05651 | 36079 ft | 460 kts | 353° |
| 2026-04-29 11:22 | 49.23362 | -1.06485 | 36073 ft | 461 kts | 353° |
| 2026-04-29 11:23 | 49.29743 | -1.07322 | 36082 ft | 461 kts | 353° |
| 2026-04-29 11:23 | 49.36140 | -1.08154 | 36081 ft | 461 kts | 353° |
| 2026-04-29 11:24 | 49.42537 | -1.08991 | 36084 ft | 462 kts | 353° |
| 2026-04-29 11:24 | 49.48939 | -1.09834 | 36099 ft | 462 kts | 353° |
| 2026-04-29 11:25 | 49.55339 | -1.10682 | 36103 ft | 462 kts | 353° |
| 2026-04-29 11:25 | 49.61774 | -1.10656 | 36110 ft | 464 kts | 4° |
| 2026-04-29 11:26 | 49.71434 | -1.09316 | 36116 ft | 465 kts | 4° |
| 2026-04-29 11:26 | 49.77888 | -1.08433 | 36114 ft | 466 kts | 4° |
| 2026-04-29 11:27 | 49.84345 | -1.07546 | 36123 ft | 466 kts | 4° |
| 2026-04-29 11:27 | 49.90816 | -1.06654 | 36137 ft | 467 kts | 4° |
| 2026-04-29 11:28 | 49.97254 | -1.05750 | 36144 ft | 468 kts | 5° |
| 2026-04-29 11:28 | 50.03746 | -1.04837 | 36146 ft | 469 kts | 5° |
| 2026-04-29 11:29 | 50.10246 | -1.03934 | 36153 ft | 470 kts | 5° |
| 2026-04-29 11:29 | 50.16761 | -1.03041 | 36167 ft | 470 kts | 5° |
| 2026-04-29 11:30 | 50.23315 | -1.02135 | 36164 ft | 470 kts | 6° |
| 2026-04-29 11:30 | 50.29784 | -1.01233 | 36174 ft | 470 kts | 6° |
| 2026-04-29 11:31 | 50.36301 | -1.00323 | 36178 ft | 470 kts | 6° |
| 2026-04-29 11:31 | 50.42820 | -0.99410 | 36181 ft | 470 kts | 6° |
| 2026-04-29 11:32 | 50.49309 | -0.98498 | 36199 ft | 468 kts | 6° |
| 2026-04-29 11:32 | 50.55785 | -0.97582 | 36206 ft | 467 kts | 6° |
| 2026-04-29 11:33 | 50.62252 | -0.96662 | 36217 ft | 466 kts | 6° |
| 2026-04-29 11:33 | 50.68709 | -0.95737 | 36208 ft | 465 kts | 8° |
| 2026-04-29 11:34 | 50.75148 | -0.94822 | 36223 ft | 464 kts | 8° |
| 2026-04-29 11:34 | 50.81552 | -0.93765 | 36227 ft | 461 kts | 14° |
| 2026-04-29 11:35 | 50.87666 | -0.90918 | 36204 ft | 457 kts | 21° |
| 2026-04-29 11:35 | 50.90686 | -0.89351 | 36084 ft | 455 kts | 21° |
| 2026-04-29 11:35 | 50.93674 | -0.87806 | 35832 ft | 450 kts | 22° |
| 2026-04-29 11:36 | 50.96647 | -0.86272 | 35593 ft | 448 kts | 22° |
| 2026-04-29 11:36 | 50.99610 | -0.84742 | 35349 ft | 446 kts | 21° |
| 2026-04-29 11:36 | 51.02553 | -0.83219 | 35107 ft | 445 kts | 22° |
| 2026-04-29 11:36 | 51.05487 | -0.81696 | 34866 ft | 443 kts | 22° |
| 2026-04-29 11:37 | 51.08413 | -0.80173 | 34620 ft | 441 kts | 22° |
| 2026-04-29 11:37 | 51.11324 | -0.78659 | 34390 ft | 439 kts | 22° |
| 2026-04-29 11:37 | 51.14222 | -0.77149 | 34143 ft | 438 kts | 22° |
| 2026-04-29 11:37 | 51.17101 | -0.75647 | 33679 ft | 434 kts | 22° |
| 2026-04-29 11:38 | 51.19958 | -0.74149 | 33149 ft | 431 kts | 21° |
| 2026-04-29 11:38 | 51.22797 | -0.72655 | 32633 ft | 428 kts | 21° |
| 2026-04-29 11:38 | 51.25621 | -0.71172 | 32115 ft | 427 kts | 21° |
| 2026-04-29 11:38 | 51.28437 | -0.69693 | 31608 ft | 425 kts | 20° |
| 2026-04-29 11:39 | 51.31245 | -0.68216 | 31091 ft | 424 kts | 20° |
| 2026-04-29 11:39 | 51.34042 | -0.66745 | 30634 ft | 422 kts | 23° |
| 2026-04-29 11:39 | 51.36822 | -0.65280 | 30114 ft | 420 kts | 23° |
| 2026-04-29 11:39 | 51.39578 | -0.63825 | 29630 ft | 415 kts | 23° |
| 2026-04-29 11:40 | 51.42309 | -0.62382 | 29150 ft | 411 kts | 23° |
| 2026-04-29 11:40 | 51.45013 | -0.60951 | 28705 ft | 407 kts | 23° |
| 2026-04-29 11:40 | 51.47693 | -0.59530 | 28252 ft | 403 kts | 24° |
| 2026-04-29 11:40 | 51.50343 | -0.58121 | 27802 ft | 400 kts | 24° |
| 2026-04-29 11:41 | 51.52969 | -0.56725 | 27351 ft | 397 kts | 24° |
| 2026-04-29 11:41 | 51.55584 | -0.55331 | 26903 ft | 394 kts | 24° |
| 2026-04-29 11:41 | 51.58174 | -0.53948 | 26455 ft | 391 kts | 25° |
| 2026-04-29 11:41 | 51.60747 | -0.52571 | 26011 ft | 389 kts | 25° |
| 2026-04-29 11:42 | 51.63307 | -0.51201 | 25549 ft | 387 kts | 25° |
| 2026-04-29 11:42 | 51.65860 | -0.49838 | 25083 ft | 385 kts | 25° |
| 2026-04-29 11:42 | 51.68400 | -0.48480 | 24730 ft | 384 kts | 25° |
| 2026-04-29 11:42 | 51.70933 | -0.47126 | 24261 ft | 383 kts | 25° |
| 2026-04-29 11:43 | 51.73464 | -0.45770 | 23724 ft | 383 kts | 25° |
| 2026-04-29 11:43 | 51.75985 | -0.44419 | 23240 ft | 381 kts | 24° |
| 2026-04-29 11:43 | 51.78595 | -0.43560 | 22637 ft | 388 kts | 9° |
| 2026-04-29 11:43 | 51.81264 | -0.43819 | 22307 ft | 391 kts | 353° |
| 2026-04-29 11:44 | 51.83830 | -0.45216 | 22321 ft | 390 kts | 338° |
| 2026-04-29 11:44 | 51.86191 | -0.47392 | 22102 ft | 391 kts | 333° |
| 2026-04-29 11:44 | 51.88534 | -0.49651 | 21617 ft | 391 kts | 333° |
| 2026-04-29 11:44 | 51.90854 | -0.51913 | 21221 ft | 388 kts | 333° |
| 2026-04-29 11:45 | 51.93155 | -0.54168 | 20753 ft | 387 kts | 333° |
| 2026-04-29 11:45 | 51.95455 | -0.56423 | 20259 ft | 387 kts | 333° |
| 2026-04-29 11:45 | 51.97767 | -0.58687 | 19771 ft | 388 kts | 333° |
| 2026-04-29 11:45 | 52.00080 | -0.60953 | 19283 ft | 388 kts | 333° |
| 2026-04-29 11:46 | 52.02397 | -0.63223 | 18814 ft | 388 kts | 333° |
| 2026-04-29 11:46 | 52.04707 | -0.65485 | 18301 ft | 387 kts | 333° |
| 2026-04-29 11:46 | 52.07010 | -0.67742 | 17767 ft | 387 kts | 333° |
| 2026-04-29 11:46 | 52.09315 | -0.70002 | 17243 ft | 386 kts | 333° |
| 2026-04-29 11:47 | 52.11612 | -0.72263 | 16726 ft | 385 kts | 333° |
| 2026-04-29 11:47 | 52.13902 | -0.74520 | 16223 ft | 385 kts | 332° |
| 2026-04-29 11:47 | 52.16182 | -0.76772 | 15817 ft | 381 kts | 332° |
| 2026-04-29 11:47 | 52.18428 | -0.79000 | 15517 ft | 375 kts | 332° |
| 2026-04-29 11:48 | 52.20633 | -0.81187 | 15223 ft | 369 kts | 332° |
| 2026-04-29 11:48 | 52.22684 | -0.83670 | 14934 ft | 367 kts | 319° |
| 2026-04-29 11:48 | 52.24303 | -0.86842 | 14688 ft | 363 kts | 303° |
| 2026-04-29 11:48 | 52.25413 | -0.90557 | 14448 ft | 358 kts | 289° |
| 2026-04-29 11:49 | 52.26011 | -0.94406 | 14236 ft | 352 kts | 282° |
| 2026-04-29 11:49 | 52.26540 | -0.98286 | 13957 ft | 347 kts | 282° |
| 2026-04-29 11:49 | 52.27070 | -1.02155 | 13674 ft | 343 kts | 282° |
| 2026-04-29 11:49 | 52.27587 | -1.05938 | 13392 ft | 340 kts | 282° |
| 2026-04-29 11:50 | 52.28092 | -1.09653 | 13095 ft | 339 kts | 282° |
| 2026-04-29 11:50 | 52.28435 | -1.12186 | 12905 ft | 339 kts | 282° |
| 2026-04-29 11:50 | 52.28598 | -1.17217 | 12392 ft | 335 kts | 255° |
| 2026-04-29 11:50 | 52.27913 | -1.20846 | 11891 ft | 335 kts | 246° |
| 2026-04-29 11:51 | 52.27369 | -1.23251 | 11569 ft | 334 kts | 246° |
| 2026-04-29 11:51 | 52.26571 | -1.26763 | 11078 ft | 324 kts | 246° |
| 2026-04-29 11:51 | 52.25802 | -1.30159 | 10593 ft | 316 kts | 245° |
| 2026-04-29 11:51 | 52.25056 | -1.33483 | 10093 ft | 308 kts | 246° |
| 2026-04-29 11:52 | 52.24324 | -1.36721 | 9565 ft | 300 kts | 246° |
| 2026-04-29 11:52 | 52.23610 | -1.39873 | 9036 ft | 293 kts | 245° |
| 2026-04-29 11:52 | 52.22911 | -1.42961 | 8529 ft | 287 kts | 246° |
| 2026-04-29 11:52 | 52.22228 | -1.45990 | 8024 ft | 282 kts | 246° |
| 2026-04-29 11:53 | 52.21563 | -1.48963 | 7534 ft | 277 kts | 245° |
| 2026-04-29 11:53 | 52.20912 | -1.51882 | 7043 ft | 271 kts | 245° |
| 2026-04-29 11:53 | 52.20272 | -1.54744 | 6539 ft | 267 kts | 246° |
| 2026-04-29 11:53 | 52.19643 | -1.57540 | 6104 ft | 263 kts | 248° |
| 2026-04-29 11:54 | 52.19413 | -1.60442 | 5763 ft | 259 kts | 278° |
| 2026-04-29 11:54 | 52.20058 | -1.63098 | 5408 ft | 249 kts | 313° |
| 2026-04-29 11:54 | 52.21360 | -1.64761 | 5049 ft | 231 kts | 348° |
| 2026-04-29 11:54 | 52.22894 | -1.65408 | 4705 ft | 227 kts | 359° |
| 2026-04-29 11:55 | 52.24457 | -1.65820 | 4340 ft | 229 kts | 0° |
| 2026-04-29 11:55 | 52.26029 | -1.66202 | 4060 ft | 227 kts | 1° |
| 2026-04-29 11:55 | 52.27604 | -1.66588 | 3754 ft | 225 kts | 1° |
| 2026-04-29 11:55 | 52.29115 | -1.66718 | 3506 ft | 217 kts | 9° |
| 2026-04-29 11:56 | 52.30619 | -1.66670 | 3254 ft | 217 kts | 10° |
| 2026-04-29 11:56 | 52.32128 | -1.66572 | 3055 ft | 216 kts | 10° |
| 2026-04-29 11:56 | 52.33598 | -1.66454 | 3012 ft | 205 kts | 11° |
| 2026-04-29 11:56 | 52.34956 | -1.66365 | 2996 ft | 189 kts | 11° |
| 2026-04-29 11:57 | 52.36258 | -1.66284 | 2612 ft | 184 kts | 11° |
| 2026-04-29 11:57 | 52.37537 | -1.66417 | 2200 ft | 189 kts | 353° |
| 2026-04-29 11:57 | 52.38709 | -1.67399 | 1837 ft | 187 kts | 333° |
| 2026-04-29 11:57 | 52.39749 | -1.68557 | 1575 ft | 177 kts | 334° |
| 2026-04-29 11:58 | 52.40754 | -1.69668 | 1334 ft | 170 kts | 334° |
| 2026-04-29 11:58 | 52.41707 | -1.70725 | 1088 ft | 162 kts | 336° |
| 2026-04-29 11:58 | 52.42611 | -1.71728 | 881 ft | 154 kts | 333° |
| 2026-04-29 11:58 | 52.43491 | -1.72703 | 663 ft | 152 kts | 336° |
| 2026-04-29 11:59 | 52.44364 | -1.73667 | 433 ft | 152 kts | 334° |
| 2026-04-29 11:59 | 52.45207 | -1.74590 | 329 ft | 128 kts | 326° |
| 2026-04-29 11:59 | 52.45731 | -1.75182 | 324 ft | 73 kts | 325° |
| 2026-04-29 11:59 | 52.46038 | -1.75528 | 310 ft | 44 kts | 324° |
| 2026-04-29 12:00 | 52.46181 | -1.75558 | 311 ft | 17 kts | 49° |
| 2026-04-29 12:00 | 52.46218 | -1.75423 | 303 ft | 14 kts | 99° |
| 2026-04-29 12:00 | 52.46142 | -1.75315 | 306 ft | 15 kts | 146° |
| 2026-04-29 12:00 | 52.46053 | -1.75215 | 305 ft | 16 kts | 146° |
| 2026-04-29 12:01 | 52.45957 | -1.75109 | 305 ft | 17 kts | 146° |
| 2026-04-29 12:01 | 52.45856 | -1.74996 | 310 ft | 18 kts | 146° |
| 2026-04-29 12:01 | 52.45753 | -1.74882 | 310 ft | 18 kts | 146° |
| 2026-04-29 12:01 | 52.45658 | -1.74776 | 316 ft | 16 kts | 146° |
| 2026-04-29 12:02 | 52.45575 | -1.74684 | 321 ft | 13 kts | 146° |
| 2026-04-29 12:02 | 52.45496 | -1.74596 | 323 ft | 17 kts | 144° |
| 2026-04-29 12:02 | 52.45433 | -1.74437 | 323 ft | 17 kts | 117° |
| 2026-04-29 12:02 | 52.45382 | -1.74268 | 323 ft | 17 kts | 117° |
| 2026-04-29 12:03 | 52.45332 | -1.74105 | 323 ft | 12 kts | 116° |
| 2026-04-29 12:03 | 52.45313 | -1.73979 | 323 ft | 12 kts | 72° |
| 2026-04-29 12:03 | 52.45349 | -1.73891 | 323 ft | 5 kts | 58° |
| 2026-04-29 12:03 | 52.45331 | -1.73842 | 323 ft | 6 kts | 140° |
| 2026-04-29 12:04 | 52.45300 | -1.73806 | 323 ft | 2 kts | 146° |
| 2026-04-29 12:04 | 52.45295 | -1.73800 | 323 ft | 0 kts | 146° |